Lotosino, Russia
Current Conditions -  °F | °C
As of 5:30 PM on Thursday 27 Nov 2014 (Local Time) from UUEE Reporting Station
Haze Haze  
Wind Chill: 19°   Ceiling: 1100
Heat Index: 19°   Visibility: 2.1mi
Dew Point: 18°   Wind: 2mph
Humidity: 93%   Direction: NA
Pressure: 30.48"   Gusts: NA
Location:  56.23°N, 35.63°E
Report Text: UUEE 271430Z VRB01MPS 3500 BR OVC011 M07/M08 Q1032 7512015125120151 NOSIG
Loading
Personal Weather Stations






























Interactive Weather Map New forecast layout! Learn more

10-Day Weather Forecast

Advertisements
Track Severe Weather on mobile